Time;durP1;ratioP1;P1;durP2;ratioP2;P2;SDS_P1;SDS_P2;PMS_P1;PMS_P2;Temp;Humidity;BMP_temperature;BMP_pressure;BME280_temperature;BME280_humidity;BME280_pressure;Samples;Min_cycle;Max_cycle;Signal;HPM_P1;HPM_P2
2023/08/13 00:02:01;;;;;;;3.83;2.70;;;;;;;;;;5030222;28;20490;-52
2023/08/13 00:04:27;;;;;;;3.00;2.40;;;;;;;;;;5030146;28;20497;-52
2023/08/13 00:06:53;;;;;;;3.60;2.30;;;;;;;;;;5029894;28;20423;-53
2023/08/13 00:09:20;;;;;;;3.00;2.70;;;;;;;;;;5030267;28;20449;-53
2023/08/13 00:11:46;;;;;;;3.90;3.10;;;;;;;;;;5029924;28;20411;-52
2023/08/13 00:14:13;;;;;;;3.88;2.70;;;;;;;;;;5030008;28;20395;-53
2023/08/13 00:16:39;;;;;;;3.57;2.90;;;;;;;;;;5029925;28;20925;-53
2023/08/13 00:19:06;;;;;;;5.78;3.40;;;;;;;;;;5030221;28;20407;-52
2023/08/13 00:21:32;;;;;;;5.15;3.50;;;;;;;;;;5029772;28;20487;-51
2023/08/13 00:23:58;;;;;;;4.00;2.85;;;;;;;;;;5029771;28;20458;-53
2023/08/13 00:26:24;;;;;;;4.50;3.38;;;;;;;;;;5029875;28;20446;-54
2023/08/13 00:28:50;;;;;;;5.30;3.55;;;;;;;;;;5029950;28;20403;-53
2023/08/13 00:31:17;;;;;;;7.03;4.27;;;;;;;;;;5029791;28;20484;-53
2023/08/13 00:33:43;;;;;;;5.38;4.45;;;;;;;;;;5029514;28;20844;-53
2023/08/13 00:36:09;;;;;;;5.20;4.00;;;;;;;;;;5029708;28;20395;-56
2023/08/13 00:38:35;;;;;;;5.65;4.00;;;;;;;;;;5029675;28;20761;-53
2023/08/13 00:41:01;;;;;;;3.17;2.77;;;;;;;;;;5029548;28;20422;-52
2023/08/13 00:43:27;;;;;;;5.00;3.25;;;;;;;;;;5029560;28;20418;-53
2023/08/13 00:45:54;;;;;;;5.38;3.80;;;;;;;;;;5029445;28;20813;-52
2023/08/13 00:48:22;;;;;;;3.67;3.00;;;;;;;;;;5029720;28;20461;-52
2023/08/13 00:50:48;;;;;;;3.50;3.00;;;;;;;;;;5029426;28;20781;-53
2023/08/13 00:53:14;;;;;;;4.57;3.50;;;;;;;;;;5029708;28;20410;-53
2023/08/13 00:55:40;;;;;;;4.40;3.20;;;;;;;;;;5032902;28;20402;-52
2023/08/13 00:58:06;;;;;;;4.43;3.13;;;;;;;;;;5036326;28;20477;-53
2023/08/13 01:00:32;;;;;;;4.53;3.45;;;;;;;;;;5035969;28;20891;-53
2023/08/13 01:02:58;;;;;;;5.10;4.15;;;;;;;;;;5035866;28;20896;-53
2023/08/13 01:05:30;;;;;;;5.95;3.97;;;;;;;;;;5035820;28;20461;-53
2023/08/13 01:07:59;;;;;;;6.07;3.80;;;;;;;;;;5035837;28;21004;-53
2023/08/13 01:10:29;;;;;;;4.88;3.97;;;;;;;;;;5018131;28;20425;-53
2023/08/13 01:12:59;;;;;;;5.53;3.92;;;;;;;;;;5035750;28;20410;-53
2023/08/13 01:15:27;;;;;;;6.43;3.87;;;;;;;;;;5035696;28;20414;-53
2023/08/13 01:17:53;;;;;;;4.95;4.28;;;;;;;;;;5035836;28;20407;-53
2023/08/13 01:20:24;;;;;;;5.68;3.80;;;;;;;;;;5036011;28;20421;-53
2023/08/13 01:22:52;;;;;;;4.88;3.60;;;;;;;;;;5035830;28;20425;-53
2023/08/13 01:25:18;;;;;;;3.42;3.10;;;;;;;;;;5035726;28;20409;-52
2023/08/13 01:27:49;;;;;;;3.90;3.20;;;;;;;;;;5035701;28;20690;-53
2023/08/13 01:30:17;;;;;;;3.38;3.00;;;;;;;;;;5035822;28;20821;-52
2023/08/13 01:32:45;;;;;;;3.92;2.80;;;;;;;;;;5035651;28;20399;-53
2023/08/13 01:35:12;;;;;;;6.43;3.40;;;;;;;;;;5035873;28;20410;-53
2023/08/13 01:37:39;;;;;;;5.60;3.97;;;;;;;;;;5035605;28;21012;-53
2023/08/13 01:40:07;;;;;;;4.97;3.90;;;;;;;;;;5036093;28;20411;-53
2023/08/13 01:42:33;;;;;;;5.40;4.00;;;;;;;;;;5035683;28;20403;-53
2023/08/13 01:44:59;;;;;;;6.05;4.13;;;;;;;;;;5035475;28;20877;-53
2023/08/13 01:47:25;;;;;;;4.80;3.88;;;;;;;;;;5035473;28;20476;-53
2023/08/13 01:49:51;;;;;;;4.78;3.92;;;;;;;;;;5035705;28;20434;-52
2023/08/13 01:52:17;;;;;;;3.20;2.90;;;;;;;;;;5035707;28;20402;-53
2023/08/13 01:54:43;;;;;;;4.33;3.00;;;;;;;;;;5035504;28;20401;-53
2023/08/13 01:57:11;;;;;;;4.32;3.50;;;;;;;;;;5035631;28;20410;-53
2023/08/13 01:59:37;;;;;;;6.13;3.95;;;;;;;;;;5035481;28;20403;-53
2023/08/13 02:02:03;;;;;;;5.90;3.80;;;;;;;;;;5035557;28;20441;-53
2023/08/13 02:04:29;;;;;;;6.07;4.05;;;;;;;;;;5035392;28;21132;-53
2023/08/13 02:06:55;;;;;;;5.25;4.55;;;;;;;;;;5032879;28;20440;-53
2023/08/13 02:09:21;;;;;;;8.33;5.20;;;;;;;;;;5032541;28;20409;-53
2023/08/13 02:11:47;;;;;;;8.07;5.78;;;;;;;;;;5032175;28;20468;-53
2023/08/13 02:14:14;;;;;;;9.30;5.53;;;;;;;;;;5032257;28;20840;-53
2023/08/13 02:16:40;;;;;;;9.50;5.72;;;;;;;;;;5032069;28;20448;-53
2023/08/13 02:19:06;;;;;;;6.47;4.47;;;;;;;;;;5032345;28;20426;-53
2023/08/13 02:21:32;;;;;;;7.63;5.50;;;;;;;;;;5032067;28;20499;-53
2023/08/13 02:23:58;;;;;;;7.40;5.10;;;;;;;;;;5032088;28;20422;-52
2023/08/13 02:26:24;;;;;;;5.60;4.38;;;;;;;;;;5032112;28;20421;-52
2023/08/13 02:28:50;;;;;;;8.02;5.20;;;;;;;;;;5031884;28;20471;-52
2023/08/13 02:31:18;;;;;;;5.10;4.23;;;;;;;;;;5033199;28;20689;-52
2023/08/13 02:33:44;;;;;;;6.07;4.07;;;;;;;;;;5032911;28;20722;-53
2023/08/13 02:36:10;;;;;;;8.93;4.73;;;;;;;;;;5033185;28;20239;-53
2023/08/13 02:38:36;;;;;;;5.53;4.27;;;;;;;;;;5033214;28;20263;-53
2023/08/13 02:41:02;;;;;;;4.70;3.70;;;;;;;;;;5032918;28;20659;-53
2023/08/13 02:43:32;;;;;;;6.82;5.25;;;;;;;;;;5031677;28;20876;-53
2023/08/13 02:45:58;;;;;;;6.67;4.53;;;;;;;;;;5031332;28;21136;-52
2023/08/13 02:48:25;;;;;;;6.97;5.03;;;;;;;;;;5031643;28;20411;-52
2023/08/13 02:50:51;;;;;;;4.22;3.22;;;;;;;;;;5031655;28;20402;-52
2023/08/13 02:53:17;;;;;;;5.47;4.05;;;;;;;;;;5031431;28;20429;-52
2023/08/13 02:55:43;;;;;;;4.87;4.00;;;;;;;;;;5031402;28;20403;-52
2023/08/13 02:58:09;;;;;;;3.50;2.95;;;;;;;;;;5031471;28;20406;-53
2023/08/13 03:00:35;;;;;;;6.35;4.35;;;;;;;;;;5031413;28;20431;-53
2023/08/13 03:03:01;;;;;;;4.70;3.58;;;;;;;;;;5031429;28;20400;-53
2023/08/13 03:05:30;;;;;;;4.80;3.67;;;;;;;;;;5031244;28;20422;-53
2023/08/13 03:07:56;;;;;;;4.43;3.20;;;;;;;;;;5031247;28;20443;-53
2023/08/13 03:10:22;;;;;;;5.47;3.55;;;;;;;;;;5031316;28;20403;-53
2023/08/13 03:12:48;;;;;;;5.22;3.75;;;;;;;;;;5031138;28;20477;-53
2023/08/13 03:15:14;;;;;;;8.70;5.35;;;;;;;;;;5031077;28;20976;-53
2023/08/13 03:17:40;;;;;;;8.70;5.50;;;;;;;;;;5030907;28;20403;-53
2023/08/13 03:20:07;;;;;;;5.05;4.18;;;;;;;;;;5031143;28;20399;-52
2023/08/13 03:22:34;;;;;;;5.68;4.50;;;;;;;;;;5031065;28;20461;-52
2023/08/13 03:25:00;;;;;;;4.22;3.35;;;;;;;;;;5030682;28;20442;-52
2023/08/13 03:27:26;;;;;;;6.03;4.20;;;;;;;;;;5030711;28;20933;-51
2023/08/13 03:29:52;;;;;;;6.97;5.00;;;;;;;;;;5030895;28;20430;-52
2023/08/13 03:32:18;;;;;;;11.88;5.40;;;;;;;;;;5030869;28;20487;-52
2023/08/13 03:34:44;;;;;;;6.97;5.55;;;;;;;;;;5030706;28;20482;-52
2023/08/13 03:37:10;;;;;;;9.32;6.40;;;;;;;;;;5030790;28;20409;-52
2023/08/13 03:39:37;;;;;;;9.32;6.80;;;;;;;;;;5030814;28;20407;-52
2023/08/13 03:42:04;;;;;;;10.75;6.22;;;;;;;;;;5030827;28;20502;-52
2023/08/13 03:44:30;;;;;;;9.63;5.90;;;;;;;;;;5031733;28;20250;-51
2023/08/13 03:46:56;;;;;;;8.23;6.30;;;;;;;;;;5031595;28;20229;-53
2023/08/13 03:49:22;;;;;;;11.20;6.60;;;;;;;;;;5031824;28;20255;-52
2023/08/13 03:51:48;;;;;;;9.20;6.40;;;;;;;;;;5031618;28;20192;-52
2023/08/13 03:54:14;;;;;;;10.27;6.70;;;;;;;;;;5031452;28;20204;-52
2023/08/13 03:56:41;;;;;;;7.30;6.60;;;;;;;;;;5031625;28;20193;-54
2023/08/13 03:59:07;;;;;;;9.77;5.70;;;;;;;;;;5031646;28;20211;-54
2023/08/13 04:01:33;;;;;;;9.80;5.83;;;;;;;;;;5031414;28;20288;-53
2023/08/13 04:03:59;;;;;;;8.03;6.30;;;;;;;;;;5031073;28;20573;-53
2023/08/13 04:06:26;;;;;;;7.83;4.97;;;;;;;;;;5030496;28;20657;-53
2023/08/13 04:08:52;;;;;;;8.30;5.37;;;;;;;;;;5031437;28;20196;-53
2023/08/13 04:11:18;;;;;;;6.77;5.10;;;;;;;;;;5031498;28;20197;-53
2023/08/13 04:13:45;;;;;;;6.47;5.20;;;;;;;;;;5030964;28;20201;-53
2023/08/13 04:16:11;;;;;;;5.93;5.13;;;;;;;;;;5031192;28;20197;-53
2023/08/13 04:18:37;;;;;;;7.83;6.53;;;;;;;;;;5031381;28;20200;-53
2023/08/13 04:21:03;;;;;;;12.40;6.93;;;;;;;;;;5031253;28;20199;-53
2023/08/13 04:23:29;;;;;;;8.50;6.47;;;;;;;;;;5030889;28;20649;-53
2023/08/13 04:25:55;;;;;;;10.17;6.80;;;;;;;;;;5030806;28;20279;-52
2023/08/13 04:28:22;;;;;;;12.07;6.80;;;;;;;;;;5031031;28;20208;-53
2023/08/13 04:30:50;;;;;;;7.43;6.50;;;;;;;;;;5030562;28;20291;-53
2023/08/13 04:33:16;;;;;;;10.63;6.40;;;;;;;;;;5031003;28;20205;-53
2023/08/13 04:35:42;;;;;;;10.63;7.30;;;;;;;;;;5030874;28;20185;-53
2023/08/13 04:38:08;;;;;;;11.53;7.27;;;;;;;;;;5031146;28;20262;-52
2023/08/13 04:40:34;;;;;;;8.30;6.20;;;;;;;;;;5030997;28;20200;-54
2023/08/13 04:43:00;;;;;;;8.73;7.83;;;;;;;;;;5030788;28;20285;-51
2023/08/13 04:45:26;;;;;;;10.10;7.50;;;;;;;;;;5030721;28;20280;-52
2023/08/13 04:47:54;;;;;;;8.50;6.87;;;;;;;;;;5030788;28;20201;-53
2023/08/13 04:50:20;;;;;;;7.47;6.67;;;;;;;;;;5030966;28;20558;-51
2023/08/13 04:52:46;;;;;;;9.20;7.00;;;;;;;;;;5030589;28;20200;-51
2023/08/13 04:55:12;;;;;;;11.27;6.90;;;;;;;;;;5030638;28;20197;-53
2023/08/13 04:57:38;;;;;;;9.77;7.23;;;;;;;;;;5030951;28;20364;-52
2023/08/13 05:00:04;;;;;;;10.90;7.47;;;;;;;;;;5030585;28;20239;-51
2023/08/13 05:02:30;;;;;;;11.60;8.90;;;;;;;;;;5030551;28;20669;-51
2023/08/13 05:04:58;;;;;;;12.57;9.43;;;;;;;;;;5030490;28;20280;-54
2023/08/13 05:07:24;;;;;;;12.57;9.40;;;;;;;;;;5030594;28;20323;-51
2023/08/13 05:09:50;;;;;;;11.40;8.77;;;;;;;;;;5030623;28;20641;-52
2023/08/13 05:12:16;;;;;;;13.93;9.97;;;;;;;;;;5030682;28;20205;-53
2023/08/13 05:14:42;;;;;;;13.77;9.93;;;;;;;;;;5030354;28;20201;-51
2023/08/13 05:17:17;;;;;;;13.53;10.23;;;;;;;;;;5030483;28;20201;-52
2023/08/13 05:19:43;;;;;;;14.90;10.30;;;;;;;;;;5030555;28;20194;-52
2023/08/13 05:22:10;;;;;;;13.90;10.80;;;;;;;;;;5030554;28;20214;-52
2023/08/13 05:24:36;;;;;;;14.33;11.43;;;;;;;;;;5030414;28;20232;-52
2023/08/13 05:27:03;;;;;;;15.60;10.97;;;;;;;;;;5030283;28;20225;-52
2023/08/13 05:29:29;;;;;;;14.80;10.60;;;;;;;;;;5030590;28;20204;-51
2023/08/13 05:31:55;;;;;;;11.90;10.10;;;;;;;;;;5030379;28;20225;-51
2023/08/13 05:34:21;;;;;;;10.73;9.50;;;;;;;;;;5030671;28;20189;-52
2023/08/13 05:36:47;;;;;;;11.07;9.80;;;;;;;;;;5030264;28;20679;-52
2023/08/13 05:39:14;;;;;;;14.03;10.43;;;;;;;;;;5030444;28;20198;-52
2023/08/13 05:41:40;;;;;;;13.17;9.73;;;;;;;;;;5030502;28;20296;-52
2023/08/13 05:44:06;;;;;;;13.82;11.18;;;;;;;;;;5032824;28;20494;-52
2023/08/13 05:46:33;;;;;;;11.87;9.63;;;;;;;;;;5033956;28;20222;-52
2023/08/13 05:48:59;;;;;;;12.43;9.60;;;;;;;;;;5033876;28;20192;-52
2023/08/13 05:51:25;;;;;;;12.37;8.70;;;;;;;;;;5033836;28;20296;-52
2023/08/13 05:53:51;;;;;;;11.67;8.60;;;;;;;;;;5033932;28;20197;-52
2023/08/13 05:56:18;;;;;;;10.47;8.13;;;;;;;;;;5033835;28;20239;-53
2023/08/13 05:58:44;;;;;;;10.90;8.23;;;;;;;;;;5033826;28;20722;-53
2023/08/13 06:01:11;;;;;;;12.50;9.05;;;;;;;;;;5032367;28;20395;-53
2023/08/13 06:03:37;;;;;;;11.27;7.90;;;;;;;;;;5032579;28;20403;-52
2023/08/13 06:06:03;;;;;;;8.10;7.10;;;;;;;;;;5033541;28;20316;-53
2023/08/13 06:08:29;;;;;;;11.87;6.53;;;;;;;;;;5033574;28;20251;-52
2023/08/13 06:10:55;;;;;;;10.60;7.37;;;;;;;;;;5033423;28;20202;-53
2023/08/13 06:13:22;;;;;;;7.93;6.87;;;;;;;;;;5033571;28;20205;-53
2023/08/13 06:15:48;;;;;;;7.73;6.17;;;;;;;;;;5033537;28;20343;-53
2023/08/13 06:18:14;;;;;;;8.57;5.67;;;;;;;;;;5033421;28;20262;-53
2023/08/13 06:20:40;;;;;;;11.13;6.17;;;;;;;;;;5033413;28;20197;-53
2023/08/13 06:23:06;;;;;;;8.30;6.23;;;;;;;;;;5033293;28;20217;-53
2023/08/13 06:25:32;;;;;;;7.80;5.97;;;;;;;;;;5033149;28;20715;-53
2023/08/13 06:27:58;;;;;;;9.27;5.90;;;;;;;;;;5032822;28;20201;-53
2023/08/13 06:30:26;;;;;;;10.40;6.40;;;;;;;;;;5033175;28;20202;-53
2023/08/13 06:32:52;;;;;;;9.10;6.00;;;;;;;;;;5033342;28;20205;-53
2023/08/13 06:35:18;;;;;;;8.40;5.90;;;;;;;;;;5033345;28;20291;-53
2023/08/13 06:37:45;;;;;;;12.80;5.77;;;;;;;;;;5032920;28;20218;-53
2023/08/13 06:40:11;;;;;;;8.27;5.57;;;;;;;;;;5033228;28;20202;-53
2023/08/13 06:42:37;;;;;;;12.77;5.20;;;;;;;;;;5033119;28;20229;-53
2023/08/13 06:45:04;;;;;;;8.67;5.30;;;;;;;;;;5032826;28;20230;-53
2023/08/13 06:47:32;;;;;;;8.30;5.23;;;;;;;;;;5032942;28;20228;-53
2023/08/13 06:49:58;;;;;;;7.67;4.53;;;;;;;;;;5032731;28;20198;-53
2023/08/13 06:52:24;;;;;;;10.20;4.50;;;;;;;;;;5032475;28;20765;-54
2023/08/13 06:54:50;;;;;;;8.37;4.93;;;;;;;;;;5032668;28;20604;-53
2023/08/13 06:57:17;;;;;;;12.77;4.80;;;;;;;;;;5032726;28;20239;-53
2023/08/13 06:59:43;;;;;;;5.93;4.40;;;;;;;;;;5032433;28;20243;-54
2023/08/13 07:02:09;;;;;;;8.47;4.30;;;;;;;;;;5032440;28;20203;-53
2023/08/13 07:04:37;;;;;;;6.30;3.93;;;;;;;;;;5032716;28;20210;-53
2023/08/13 07:07:03;;;;;;;7.77;3.90;;;;;;;;;;5032364;28;20227;-54
2023/08/13 07:09:29;;;;;;;5.73;3.70;;;;;;;;;;5032354;28;20222;-54
2023/08/13 07:11:55;;;;;;;7.43;3.77;;;;;;;;;;5031100;28;20578;-54
2023/08/13 07:14:21;;;;;;;6.93;3.90;;;;;;;;;;5032517;28;20230;-54
2023/08/13 07:16:47;;;;;;;6.77;3.60;;;;;;;;;;5032135;28;20619;-53
2023/08/13 07:19:13;;;;;;;6.57;3.70;;;;;;;;;;5032322;28;20200;-53
2023/08/13 07:21:40;;;;;;;6.73;3.50;;;;;;;;;;5032043;28;20214;-52
2023/08/13 07:24:07;;;;;;;8.30;3.33;;;;;;;;;;5032353;28;20290;-53
2023/08/13 07:26:34;;;;;;;5.60;2.70;;;;;;;;;;5032171;28;20228;-54
2023/08/13 07:29:00;;;;;;;7.63;2.87;;;;;;;;;;5031948;28;20284;-54
2023/08/13 07:31:26;;;;;;;7.10;3.50;;;;;;;;;;5032095;28;20271;-55
2023/08/13 07:33:55;;;;;;;5.47;3.10;;;;;;;;;;5031278;28;20658;-54
2023/08/13 07:36:21;;;;;;;6.17;2.70;;;;;;;;;;5032204;28;20193;-54
2023/08/13 07:38:48;;;;;;;9.37;3.43;;;;;;;;;;5031777;28;20255;-53
2023/08/13 07:41:14;;;;;;;5.10;2.60;;;;;;;;;;5031766;28;20570;-53
2023/08/13 07:43:40;;;;;;;6.57;2.90;;;;;;;;;;5031712;28;20304;-53
2023/08/13 07:46:06;;;;;;;4.87;2.97;;;;;;;;;;5031805;28;20230;-53
2023/08/13 07:48:32;;;;;;;6.57;3.10;;;;;;;;;;5031822;28;20216;-52
2023/08/13 07:50:58;;;;;;;3.80;2.50;;;;;;;;;;5031411;28;20255;-53
2023/08/13 07:53:25;;;;;;;6.70;2.80;;;;;;;;;;5031605;28;20211;-51
2023/08/13 07:55:52;;;;;;;7.90;2.80;;;;;;;;;;5031235;28;20189;-54
2023/08/13 07:58:18;;;;;;;7.15;2.70;;;;;;;;;;5030100;28;20490;-53
2023/08/13 08:00:45;;;;;;;3.33;2.13;;;;;;;;;;5031193;28;20205;-53
2023/08/13 08:03:11;;;;;;;5.60;2.57;;;;;;;;;;5031171;28;20197;-53
2023/08/13 08:05:37;;;;;;;5.87;2.60;;;;;;;;;;5030503;28;20284;-53
2023/08/13 08:08:03;;;;;;;6.97;2.57;;;;;;;;;;5031016;28;20303;-53
2023/08/13 08:10:29;;;;;;;5.30;2.37;;;;;;;;;;5031045;28;20200;-53
2023/08/13 08:12:56;;;;;;;5.57;2.27;;;;;;;;;;5030965;28;20271;-52
2023/08/13 08:15:23;;;;;;;7.77;2.40;;;;;;;;;;5031187;28;20523;-53
2023/08/13 08:17:49;;;;;;;5.17;2.30;;;;;;;;;;5031071;28;20256;-53
2023/08/13 08:20:15;;;;;;;4.80;2.03;;;;;;;;;;5030926;28;20201;-53
2023/08/13 08:22:41;;;;;;;4.90;2.30;;;;;;;;;;5030810;28;20217;-53
2023/08/13 08:25:08;;;;;;;6.90;2.30;;;;;;;;;;5030675;28;20274;-53
2023/08/13 08:27:34;;;;;;;5.90;2.50;;;;;;;;;;5030809;28;20224;-53
2023/08/13 08:30:01;;;;;;;7.13;2.40;;;;;;;;;;5030655;28;20232;-53
2023/08/13 08:32:27;;;;;;;7.43;2.65;;;;;;;;;;5029539;28;20477;-53
2023/08/13 08:34:53;;;;;;;6.67;2.67;;;;;;;;;;5030544;28;20268;-53
2023/08/13 08:37:19;;;;;;;4.70;2.10;;;;;;;;;;5030804;28;20204;-52
2023/08/13 08:39:45;;;;;;;5.93;2.53;;;;;;;;;;5030607;28;20197;-53
2023/08/13 08:42:12;;;;;;;5.37;2.50;;;;;;;;;;5030691;28;20197;-53
2023/08/13 08:44:39;;;;;;;4.27;2.10;;;;;;;;;;5030652;28;20653;-53
2023/08/13 08:47:08;;;;;;;4.73;2.00;;;;;;;;;;5030599;28;20220;-52
2023/08/13 08:49:34;;;;;;;4.33;2.20;;;;;;;;;;5030743;28;20219;-53
2023/08/13 08:52:01;;;;;;;5.30;2.03;;;;;;;;;;5030335;28;20267;-53
2023/08/13 08:54:27;;;;;;;5.70;2.60;;;;;;;;;;5030416;28;20227;-52
2023/08/13 08:56:53;;;;;;;3.57;1.90;;;;;;;;;;5030429;28;20193;-53
2023/08/13 08:59:19;;;;;;;6.77;2.30;;;;;;;;;;5030541;28;20200;-53
2023/08/13 09:01:45;;;;;;;5.03;1.97;;;;;;;;;;5030287;28;20667;-54
2023/08/13 09:04:13;;;;;;;5.77;2.10;;;;;;;;;;5030297;28;20201;-53
2023/08/13 09:06:55;;;;;;;3.90;2.10;;;;;;;;;;5030252;28;20252;-54
2023/08/13 09:09:22;;;;;;;4.00;2.27;;;;;;;;;;5030780;28;20192;-53
2023/08/13 09:11:48;;;;;;;5.10;2.03;;;;;;;;;;5030563;28;20194;-54
2023/08/13 09:14:14;;;;;;;4.33;2.07;;;;;;;;;;5030454;28;20218;-53
2023/08/13 09:16:44;;;;;;;8.53;2.57;;;;;;;;;;5032364;28;20199;-54
2023/08/13 09:19:10;;;;;;;4.70;1.90;;;;;;;;;;5028656;28;20232;-54
2023/08/13 09:21:37;;;;;;;4.03;2.17;;;;;;;;;;5034172;28;20265;-54
2023/08/13 09:24:04;;;;;;;4.03;1.70;;;;;;;;;;5037882;28;20315;-54
2023/08/13 09:26:30;;;;;;;3.07;1.60;;;;;;;;;;5053746;28;20233;-54
2023/08/13 09:28:56;;;;;;;4.27;1.90;;;;;;;;;;5053735;28;20286;-54
2023/08/13 09:31:23;;;;;;;2.70;1.67;;;;;;;;;;5054057;28;20205;-55
2023/08/13 09:33:51;;;;;;;5.90;1.80;;;;;;;;;;5044938;28;20771;-54
2023/08/13 09:36:17;;;;;;;4.43;1.83;;;;;;;;;;5033580;28;20287;-54
2023/08/13 09:38:45;;;;;;;5.23;2.00;;;;;;;;;;5033732;28;20294;-54
2023/08/13 09:41:13;;;;;;;3.03;1.70;;;;;;;;;;5033695;28;20234;-56
2023/08/13 09:43:40;;;;;;;3.47;1.60;;;;;;;;;;5031664;28;20200;-55
2023/08/13 09:46:07;;;;;;;3.83;1.57;;;;;;;;;;5031816;28;20281;-53
2023/08/13 09:48:33;;;;;;;1.87;1.37;;;;;;;;;;5033817;28;20199;-51
2023/08/13 09:51:02;;;;;;;3.23;1.50;;;;;;;;;;5033577;28;20262;-50
2023/08/13 09:53:30;;;;;;;3.93;1.30;;;;;;;;;;5033711;28;20203;-51
2023/08/13 09:56:00;;;;;;;3.03;1.30;;;;;;;;;;5032313;28;20942;-51
2023/08/13 09:58:26;;;;;;;2.40;1.50;;;;;;;;;;5032429;28;20407;-50
2023/08/13 10:00:52;;;;;;;2.07;1.40;;;;;;;;;;5033565;28;20200;-51
2023/08/13 10:03:18;;;;;;;2.33;1.23;;;;;;;;;;5033792;28;20153;-50
2023/08/13 10:05:45;;;;;;;2.10;1.27;;;;;;;;;;5033315;28;20655;-50
2023/08/13 10:08:14;;;;;;;3.80;1.50;;;;;;;;;;5033433;28;20368;-52
2023/08/13 10:10:41;;;;;;;2.53;1.20;;;;;;;;;;5033326;28;20384;-53
2023/08/13 10:13:08;;;;;;;2.80;1.40;;;;;;;;;;5033595;28;20228;-52
2023/08/13 10:15:35;;;;;;;2.87;1.40;;;;;;;;;;5033604;28;20200;-52
2023/08/13 10:18:02;;;;;;;2.90;1.23;;;;;;;;;;5033191;28;20243;-52
2023/08/13 10:20:29;;;;;;;4.47;1.27;;;;;;;;;;5033438;28;20208;-52
2023/08/13 10:22:55;;;;;;;3.07;1.17;;;;;;;;;;5032106;28;20311;-52
2023/08/13 10:25:27;;;;;;;3.13;1.37;;;;;;;;;;5033333;28;20698;-52
2023/08/13 10:27:54;;;;;;;3.03;1.37;;;;;;;;;;5032271;28;20227;-54
2023/08/13 10:30:21;;;;;;;2.87;1.27;;;;;;;;;;5033492;28;20201;-52
2023/08/13 10:32:49;;;;;;;1.27;1.00;;;;;;;;;;5032980;28;20262;-51
2023/08/13 10:35:22;;;;;;;2.43;1.30;;;;;;;;;;5033261;28;20212;-50
2023/08/13 10:37:52;;;;;;;1.90;1.30;;;;;;;;;;5033186;28;20201;-50
2023/08/13 10:40:19;;;;;;;3.10;1.40;;;;;;;;;;5029832;28;20204;-51
2023/08/13 10:42:46;;;;;;;1.70;1.03;;;;;;;;;;5032600;28;20206;-51
2023/08/13 10:45:14;;;;;;;1.47;0.97;;;;;;;;;;5032475;28;20207;-51
2023/08/13 10:47:45;;;;;;;4.00;1.20;;;;;;;;;;5032553;28;20274;-52
2023/08/13 10:50:15;;;;;;;1.90;1.23;;;;;;;;;;5032464;28;20679;-50
2023/08/13 10:52:41;;;;;;;1.20;0.93;;;;;;;;;;5032424;28;20193;-51
2023/08/13 10:55:09;;;;;;;1.87;1.30;;;;;;;;;;5032295;28;20205;-51
2023/08/13 10:57:35;;;;;;;2.83;1.37;;;;;;;;;;5032519;28;20648;-51
2023/08/13 11:00:03;;;;;;;3.33;1.53;;;;;;;;;;5032221;28;20200;-50
2023/08/13 11:02:32;;;;;;;3.87;1.30;;;;;;;;;;5032621;28;20445;-50
2023/08/13 11:04:59;;;;;;;3.30;1.40;;;;;;;;;;5032068;28;20201;-51
2023/08/13 11:07:25;;;;;;;2.63;1.70;;;;;;;;;;5032028;28;20708;-51
2023/08/13 11:09:52;;;;;;;4.63;1.70;;;;;;;;;;5032282;28;20197;-51
2023/08/13 11:12:18;;;;;;;3.23;1.50;;;;;;;;;;5032305;28;20211;-51
2023/08/13 11:14:44;;;;;;;2.80;1.30;;;;;;;;;;5032035;28;20675;-51
2023/08/13 11:17:10;;;;;;;3.47;1.30;;;;;;;;;;5031885;28;20201;-51
2023/08/13 11:19:36;;;;;;;1.60;1.00;;;;;;;;;;5032267;28;20193;-51
2023/08/13 11:22:03;;;;;;;3.30;1.30;;;;;;;;;;5031767;28;20231;-51
2023/08/13 11:24:31;;;;;;;4.07;1.40;;;;;;;;;;5031717;28;20643;-51
2023/08/13 11:26:57;;;;;;;2.47;1.30;;;;;;;;;;5031542;28;20249;-51
2023/08/13 11:29:23;;;;;;;3.57;1.37;;;;;;;;;;5031841;28;20555;-51
2023/08/13 11:31:50;;;;;;;3.00;1.20;;;;;;;;;;5031847;28;20649;-51
2023/08/13 11:34:16;;;;;;;1.63;1.10;;;;;;;;;;5031751;28;20540;-51
2023/08/13 11:36:43;;;;;;;1.97;1.23;;;;;;;;;;5031619;28;20190;-51
2023/08/13 11:39:11;;;;;;;3.07;1.20;;;;;;;;;;5031372;28;20631;-50
2023/08/13 11:41:37;;;;;;;1.57;1.20;;;;;;;;;;5031835;28;20212;-51
2023/08/13 11:44:04;;;;;;;2.47;1.50;;;;;;;;;;5031535;28;20205;-51
2023/08/13 11:46:45;;;;;;;3.87;1.20;;;;;;;;;;5031432;28;20219;-51
2023/08/13 11:49:16;;;;;;;1.67;1.00;;;;;;;;;;5030430;28;20251;-51
2023/08/13 11:51:42;;;;;;;2.10;1.13;;;;;;;;;;5031327;28;20752;-51
2023/08/13 11:54:10;;;;;;;2.80;1.10;;;;;;;;;;5031286;28;20214;-51
2023/08/13 11:56:38;;;;;;;4.07;1.40;;;;;;;;;;5031536;28;20213;-51
2023/08/13 11:59:05;;;;;;;2.17;1.10;;;;;;;;;;5031274;28;20227;-50
2023/08/13 12:01:33;;;;;;;1.73;0.90;;;;;;;;;;5031245;28;20196;-50
2023/08/13 12:03:59;;;;;;;3.50;1.40;;;;;;;;;;5031099;28;20454;-51
2023/08/13 12:06:26;;;;;;;3.63;2.03;;;;;;;;;;5031057;28;20224;-51
2023/08/13 12:08:52;;;;;;;3.23;2.30;;;;;;;;;;5031197;28;20283;-51
2023/08/13 12:11:20;;;;;;;2.87;2.23;;;;;;;;;;5031318;28;20197;-51
2023/08/13 12:13:46;;;;;;;3.43;1.70;;;;;;;;;;5030914;28;20207;-51
2023/08/13 12:16:12;;;;;;;2.97;1.60;;;;;;;;;;5030764;28;20481;-51
2023/08/13 12:18:38;;;;;;;2.63;1.83;;;;;;;;;;5030979;28;20666;-51
2023/08/13 12:21:04;;;;;;;3.07;1.47;;;;;;;;;;5030895;28;20219;-51
2023/08/13 12:23:30;;;;;;;1.63;1.20;;;;;;;;;;5030748;28;20212;-51
2023/08/13 12:25:56;;;;;;;1.80;1.37;;;;;;;;;;5030541;28;20241;-51
2023/08/13 12:28:24;;;;;;;2.03;1.20;;;;;;;;;;5030801;28;20252;-50
2023/08/13 12:30:50;;;;;;;2.73;1.30;;;;;;;;;;5031085;28;20206;-51
2023/08/13 12:33:16;;;;;;;2.27;1.10;;;;;;;;;;5030632;28;20197;-51
2023/08/13 12:35:42;;;;;;;2.90;1.37;;;;;;;;;;5030623;28;20823;-51
2023/08/13 12:38:08;;;;;;;3.23;1.20;;;;;;;;;;5030737;28;20193;-50
2023/08/13 12:40:34;;;;;;;1.93;1.00;;;;;;;;;;5030893;28;20279;-50
2023/08/13 12:43:00;;;;;;;2.40;1.20;;;;;;;;;;5030225;28;20293;-50
2023/08/13 12:45:27;;;;;;;3.03;1.30;;;;;;;;;;5030471;28;20208;-51
2023/08/13 12:47:53;;;;;;;3.30;1.20;;;;;;;;;;5030537;28;20574;-50
2023/08/13 12:50:19;;;;;;;1.93;1.00;;;;;;;;;;5030522;28;20225;-50
2023/08/13 12:52:45;;;;;;;2.87;1.20;;;;;;;;;;5030244;28;20218;-51
2023/08/13 12:55:11;;;;;;;4.83;1.43;;;;;;;;;;5030333;28;20207;-51
2023/08/13 12:57:37;;;;;;;3.60;1.40;;;;;;;;;;5030638;28;20206;-51
2023/08/13 13:00:04;;;;;;;4.60;1.40;;;;;;;;;;5030433;28;20200;-51
2023/08/13 13:02:32;;;;;;;2.57;1.20;;;;;;;;;;5030310;28;20576;-51
2023/08/13 13:04:58;;;;;;;2.53;1.60;;;;;;;;;;5030178;28;20297;-51
2023/08/13 13:07:24;;;;;;;4.90;1.80;;;;;;;;;;5030365;28;20704;-52
2023/08/13 13:09:50;;;;;;;3.73;1.83;;;;;;;;;;5030671;28;20213;-50
2023/08/13 13:12:19;;;;;;;2.60;1.70;;;;;;;;;;5030440;28;20194;-51
2023/08/13 13:14:46;;;;;;;4.03;1.53;;;;;;;;;;5030842;28;20601;-51
2023/08/13 13:17:13;;;;;;;3.97;1.40;;;;;;;;;;5030877;28;20196;-53
2023/08/13 13:19:42;;;;;;;4.73;1.40;;;;;;;;;;5031028;28;20205;-52
2023/08/13 13:22:08;;;;;;;2.20;1.20;;;;;;;;;;5030968;28;20236;-51
2023/08/13 13:24:34;;;;;;;3.27;2.03;;;;;;;;;;5030776;28;20240;-51
2023/08/13 13:27:01;;;;;;;3.83;1.97;;;;;;;;;;5030399;28;20225;-52
2023/08/13 13:29:27;;;;;;;3.50;1.50;;;;;;;;;;5030846;28;20266;-51
2023/08/13 13:31:53;;;;;;;2.40;1.40;;;;;;;;;;5030595;28;20199;-52
2023/08/13 13:34:19;;;;;;;2.50;1.50;;;;;;;;;;5030763;28;20291;-51
2023/08/13 13:36:46;;;;;;;3.30;1.40;;;;;;;;;;5030604;28;20188;-51
2023/08/13 13:39:12;;;;;;;2.57;1.23;;;;;;;;;;5016422;28;20215;-51
2023/08/13 13:41:38;;;;;;;3.87;1.53;;;;;;;;;;5011022;28;20236;-52
2023/08/13 13:44:04;;;;;;;4.67;1.50;;;;;;;;;;5011088;28;20618;-52
2023/08/13 13:46:30;;;;;;;4.50;1.40;;;;;;;;;;5007228;28;20569;-51
2023/08/13 13:48:59;;;;;;;2.80;1.50;;;;;;;;;;5010515;28;20236;-52
2023/08/13 13:51:25;;;;;;;4.57;1.83;;;;;;;;;;5010243;28;20197;-51
2023/08/13 13:53:53;;;;;;;2.23;1.20;;;;;;;;;;5010685;28;20201;-49
2023/08/13 13:56:19;;;;;;;4.97;1.80;;;;;;;;;;5010706;28;20198;-50
2023/08/13 13:58:45;;;;;;;3.50;1.80;;;;;;;;;;5010401;28;20371;-50
2023/08/13 14:01:11;;;;;;;5.07;2.17;;;;;;;;;;5010243;28;20207;-51
2023/08/13 14:03:37;;;;;;;3.30;1.80;;;;;;;;;;5012094;28;20193;-50
2023/08/13 14:06:03;;;;;;;4.20;1.87;;;;;;;;;;5014106;28;20198;-50
2023/08/13 14:08:29;;;;;;;3.80;1.80;;;;;;;;;;5013886;28;20267;-51
2023/08/13 14:10:56;;;;;;;4.10;1.77;;;;;;;;;;5014002;28;20275;-51
2023/08/13 14:13:22;;;;;;;2.53;1.37;;;;;;;;;;5013903;28;20271;-50
2023/08/13 14:15:49;;;;;;;3.70;1.90;;;;;;;;;;5013873;28;20209;-50
2023/08/13 14:18:15;;;;;;;3.70;1.63;;;;;;;;;;5013795;28;20194;-49
2023/08/13 14:20:40;;;;;;;4.70;2.00;;;;;;;;;;5013738;28;20232;-48
2023/08/13 14:23:06;;;;;;;3.23;1.60;;;;;;;;;;5013524;28;20216;-49
2023/08/13 14:25:33;;;;;;;4.10;1.57;;;;;;;;;;5013649;28;20239;-50
2023/08/13 14:28:02;;;;;;;4.83;1.70;;;;;;;;;;5013360;28;20286;-50
2023/08/13 14:30:28;;;;;;;5.00;1.50;;;;;;;;;;5011620;28;20258;-50
2023/08/13 14:32:54;;;;;;;5.37;2.07;;;;;;;;;;5013220;28;20203;-51
2023/08/13 14:35:20;;;;;;;3.67;1.80;;;;;;;;;;5013225;28;20211;-50
2023/08/13 14:37:46;;;;;;;4.50;1.60;;;;;;;;;;5013337;28;20680;-51